Time;durP1;ratioP1;P1;durP2;ratioP2;P2;SDS_P1;SDS_P2;PMS_P1;PMS_P2;Temp;Humidity;BMP_temperature;BMP_pressure;BME280_temperature;BME280_humidity;BME280_pressure;Samples;Min_cycle;Max_cycle;Signal;HPM_P1;HPM_P2
2022/04/28 00:01:40;;;;;;;8.43;4.50;;;7.70;99.90;;;;;;5101206;28;20229;-78
2022/04/28 00:04:05;;;;;;;6.23;5.07;;;7.60;99.90;;;;;;5100842;28;20206;-78
2022/04/28 00:06:31;;;;;;;8.10;5.30;;;7.70;99.90;;;;;;5100696;28;20193;-77
2022/04/28 00:08:56;;;;;;;6.37;5.30;;;7.60;99.90;;;;;;5100436;28;20252;-77
2022/04/28 00:11:22;;;;;;;6.67;5.07;;;7.60;99.90;;;;;;5082598;28;20181;-78
2022/04/28 00:13:48;;;;;;;6.37;5.50;;;7.60;99.90;;;;;;5082711;28;20182;-77
2022/04/28 00:16:13;;;;;;;9.63;5.23;;;7.60;99.90;;;;;;5082137;28;20221;-77
2022/04/28 00:18:39;;;;;;;8.60;5.13;;;7.60;99.90;;;;;;5100345;28;20583;-77
2022/04/28 00:21:04;;;;;;;13.37;5.03;;;7.60;99.90;;;;;;5101239;28;20196;-78
2022/04/28 00:23:30;;;;;;;7.47;5.10;;;7.60;99.90;;;;;;5082381;28;20247;-77
2022/04/28 00:25:55;;;;;;;10.87;6.13;;;7.60;99.90;;;;;;5081965;28;20201;-77
2022/04/28 00:28:21;;;;;;;7.57;4.63;;;7.50;99.90;;;;;;5082171;28;20178;-78
2022/04/28 00:30:47;;;;;;;8.90;5.30;;;7.50;99.90;;;;;;5100125;28;20170;-77
2022/04/28 00:33:12;;;;;;;6.03;4.83;;;7.50;99.90;;;;;;5082290;28;20178;-77
2022/04/28 00:35:38;;;;;;;8.53;5.23;;;7.50;99.90;;;;;;5099654;28;20584;-77
2022/04/28 00:38:04;;;;;;;10.37;5.63;;;7.50;99.90;;;;;;5082268;28;20173;-77
2022/04/28 00:40:30;;;;;;;8.83;5.93;;;7.40;99.90;;;;;;5102336;28;20169;-77
2022/04/28 00:43:18;;;;;;;7.27;5.50;;;7.40;99.90;;;;;;5100372;28;20194;-77
2022/04/28 00:45:41;;;;;;;10.50;5.80;;;7.40;99.90;;;;;;5099938;28;20280;-77
2022/04/28 00:50:53;;;;;;;9.17;5.73;;;7.40;99.90;;;;;;5100215;28;20182;-76
2022/04/28 00:53:19;;;;;;;7.73;6.13;;;7.40;99.90;;;;;;5081826;28;20529;-78
2022/04/28 00:55:45;;;;;;;11.47;5.87;;;7.30;99.90;;;;;;5081742;28;20288;-77
2022/04/28 00:58:11;;;;;;;9.33;6.30;;;7.40;99.90;;;;;;5078079;28;20202;-78
2022/04/28 01:00:40;;;;;;;7.47;5.60;;;7.40;99.90;;;;;;5096999;28;20192;-77
2022/04/28 01:03:06;;;;;;;10.13;5.90;;;7.40;99.90;;;;;;5078392;28;20202;-77
2022/04/28 01:05:32;;;;;;;9.27;6.53;;;7.30;99.90;;;;;;5077971;28;20216;-77
2022/04/28 01:07:58;;;;;;;9.00;5.07;;;7.30;99.90;;;;;;5096609;28;20180;-77
2022/04/28 01:10:23;;;;;;;6.57;5.57;;;7.30;99.90;;;;;;5078152;28;20195;-77
2022/04/28 01:12:50;;;;;;;12.93;6.03;;;7.30;99.90;;;;;;5077997;28;20182;-77
2022/04/28 01:15:15;;;;;;;11.00;6.93;;;7.30;99.90;;;;;;5096370;28;20227;-77
2022/04/28 01:17:41;;;;;;;8.77;6.90;;;7.30;99.90;;;;;;5078067;28;20206;-77
2022/04/28 01:20:07;;;;;;;12.77;6.53;;;7.30;99.90;;;;;;5078075;28;20183;-77
2022/04/28 01:22:33;;;;;;;10.67;6.70;;;7.30;99.90;;;;;;5095402;28;20206;-77
2022/04/28 01:25:08;;;;;;;12.47;6.50;;;7.30;99.90;;;;;;5096567;28;20178;-77
2022/04/28 01:27:37;;;;;;;9.27;6.47;;;7.20;99.90;;;;;;5095943;28;20239;-77
2022/04/28 01:30:14;;;;;;;12.53;7.27;;;7.20;99.90;;;;;;5095794;28;20170;-77
2022/04/28 01:32:40;;;;;;;11.17;6.90;;;7.20;99.90;;;;;;5095967;28;20185;-77
2022/04/28 01:35:06;;;;;;;12.57;6.67;;;7.20;99.90;;;;;;5077814;28;20212;-77
2022/04/28 01:37:31;;;;;;;13.47;8.10;;;7.10;99.90;;;;;;5095478;28;20216;-77
2022/04/28 01:39:57;;;;;;;9.00;7.10;;;7.10;99.90;;;;;;5078431;28;20272;-77
2022/04/28 01:42:24;;;;;;;14.17;7.87;;;7.10;99.90;;;;;;5096074;28;20231;-77
2022/04/28 01:44:50;;;;;;;13.70;7.83;;;7.00;99.90;;;;;;5077445;28;20704;-77
2022/04/28 01:47:16;;;;;;;12.80;7.33;;;7.00;99.90;;;;;;5095483;28;20539;-77
2022/04/28 01:49:42;;;;;;;9.50;7.53;;;7.00;99.90;;;;;;5095760;28;20219;-77
2022/04/28 01:54:57;;;;;;;17.70;8.63;;;7.00;99.90;;;;;;5095575;28;20173;-77
2022/04/28 01:57:24;;;;;;;13.47;8.13;;;7.00;99.90;;;;;;5077205;28;20206;-78
2022/04/28 01:59:50;;;;;;;12.20;7.63;;;6.90;99.90;;;;;;5095434;28;20174;-77
2022/04/28 02:02:16;;;;;;;12.93;7.53;;;6.90;99.90;;;;;;5077003;28;20181;-77
2022/04/28 02:04:42;;;;;;;11.70;8.40;;;6.90;99.90;;;;;;5095271;28;20524;-77
2022/04/28 02:07:07;;;;;;;10.17;7.57;;;6.90;99.90;;;;;;5095571;28;20202;-78
2022/04/28 02:09:33;;;;;;;14.00;8.17;;;6.80;99.90;;;;;;5076357;28;20251;-77
2022/04/28 02:11:58;;;;;;;12.93;7.27;;;6.80;99.90;;;;;;5095542;28;20171;-77
2022/04/28 02:14:25;;;;;;;9.13;7.43;;;6.80;99.90;;;;;;5095315;28;20174;-77
2022/04/28 02:16:50;;;;;;;13.20;8.70;;;6.80;99.90;;;;;;5077104;28;20198;-77
2022/04/28 02:19:16;;;;;;;14.67;9.10;;;6.80;99.90;;;;;;5077525;28;20231;-77
2022/04/28 02:21:42;;;;;;;16.17;8.20;;;6.80;99.90;;;;;;5095213;28;20178;-77
2022/04/28 02:24:07;;;;;;;13.67;8.20;;;6.80;99.90;;;;;;5095271;28;20194;-77
2022/04/28 02:26:34;;;;;;;13.30;8.27;;;6.80;99.90;;;;;;5095206;28;20194;-77
2022/04/28 02:28:59;;;;;;;14.60;8.97;;;6.80;99.90;;;;;;5079002;28;20228;-77
2022/04/28 02:31:25;;;;;;;14.77;8.40;;;6.80;99.90;;;;;;5081804;28;20205;-77
2022/04/28 02:33:50;;;;;;;15.77;9.47;;;6.80;99.90;;;;;;5095286;28;20178;-77
2022/04/28 02:36:16;;;;;;;12.80;9.17;;;6.80;99.90;;;;;;5078187;28;20217;-77
2022/04/28 02:38:41;;;;;;;15.53;9.47;;;6.70;99.90;;;;;;5098430;28;20182;-77
2022/04/28 02:41:07;;;;;;;12.70;9.10;;;6.70;99.90;;;;;;5098719;28;20234;-77
2022/04/28 02:43:33;;;;;;;16.97;8.90;;;6.70;99.90;;;;;;5098295;28;20217;-78
2022/04/28 02:45:59;;;;;;;12.60;9.33;;;6.80;99.90;;;;;;5077374;28;20213;-77
2022/04/28 02:48:25;;;;;;;14.07;8.57;;;6.70;99.90;;;;;;5076887;28;20170;-77
2022/04/28 02:50:52;;;;;;;13.53;8.47;;;6.70;99.90;;;;;;5094709;28;20237;-77
2022/04/28 02:53:17;;;;;;;12.93;9.50;;;6.70;99.90;;;;;;5094937;28;20699;-77
2022/04/28 02:55:43;;;;;;;14.17;8.40;;;6.70;99.90;;;;;;5076363;28;20282;-77
2022/04/28 02:58:08;;;;;;;15.70;8.67;;;6.70;99.90;;;;;;5094631;28;20185;-77
2022/04/28 03:00:37;;;;;;;14.67;8.90;;;6.70;99.90;;;;;;5076143;28;20200;-77
2022/04/28 03:03:03;;;;;;;11.63;9.00;;;6.60;99.90;;;;;;5094279;28;20228;-77
2022/04/28 03:05:29;;;;;;;19.33;9.63;;;6.60;99.90;;;;;;5076274;28;20640;-77
2022/04/28 03:10:52;;;;;;;14.00;8.93;;;6.60;99.90;;;;;;5094141;28;20204;-77
2022/04/28 03:13:19;;;;;;;14.53;9.13;;;6.50;99.90;;;;;;5075551;28;20173;-76
2022/04/28 03:15:49;;;;;;;15.53;9.40;;;6.50;99.90;;;;;;5094208;28;20205;-77
2022/04/28 03:18:16;;;;;;;12.00;9.20;;;6.40;99.90;;;;;;5075742;28;20182;-77
2022/04/28 03:20:42;;;;;;;14.13;9.30;;;6.40;99.90;;;;;;5076076;28;20184;-77
2022/04/28 03:23:11;;;;;;;13.20;9.40;;;6.40;99.90;;;;;;5075925;28;20202;-77
2022/04/28 03:25:37;;;;;;;13.53;9.33;;;6.30;99.90;;;;;;5076288;28;20211;-77
2022/04/28 03:28:03;;;;;;;14.33;9.97;;;6.40;99.90;;;;;;5075777;28;20175;-77
2022/04/28 03:30:28;;;;;;;17.87;10.13;;;6.40;99.90;;;;;;5094133;28;20269;-77
2022/04/28 03:32:54;;;;;;;12.40;9.27;;;6.30;99.90;;;;;;5075854;28;20273;-77
2022/04/28 03:35:19;;;;;;;14.13;10.20;;;6.30;99.90;;;;;;5093912;28;20257;-77
2022/04/28 03:37:47;;;;;;;14.03;9.33;;;6.30;99.90;;;;;;5075638;28;20221;-77
2022/04/28 03:40:12;;;;;;;17.03;10.70;;;6.30;99.90;;;;;;5093803;28;20690;-77
2022/04/28 03:42:38;;;;;;;17.47;9.97;;;6.20;99.90;;;;;;5093733;28;20281;-77
2022/04/28 03:45:04;;;;;;;14.37;9.67;;;6.20;99.90;;;;;;5075649;28;20261;-77
2022/04/28 03:47:35;;;;;;;15.90;10.50;;;6.20;99.90;;;;;;5094053;28;20656;-77
2022/04/28 03:50:03;;;;;;;14.03;9.17;;;6.20;99.90;;;;;;5094622;28;20238;-77
2022/04/28 03:52:28;;;;;;;19.20;10.60;;;6.20;99.90;;;;;;5093534;28;20177;-77
2022/04/28 03:54:54;;;;;;;15.23;9.60;;;6.10;99.90;;;;;;5075403;28;20235;-77
2022/04/28 03:57:20;;;;;;;16.80;10.03;;;6.20;99.90;;;;;;5093546;28;20230;-77
2022/04/28 03:59:46;;;;;;;15.87;10.53;;;6.10;99.90;;;;;;5075271;28;20182;-77
2022/04/28 04:02:12;;;;;;;17.03;10.30;;;6.10;99.90;;;;;;5075312;28;20178;-77
2022/04/28 04:04:38;;;;;;;15.67;10.43;;;6.10;99.90;;;;;;5075719;28;20175;-77
2022/04/28 04:07:03;;;;;;;14.87;10.70;;;6.10;99.90;;;;;;5075436;28;20223;-77
2022/04/28 04:09:29;;;;;;;15.47;11.27;;;6.10;99.90;;;;;;5075418;28;20174;-76
2022/04/28 04:11:54;;;;;;;15.43;10.37;;;6.10;99.90;;;;;;5093459;28;20170;-77
2022/04/28 04:14:20;;;;;;;17.23;11.00;;;6.00;99.90;;;;;;5093379;28;20204;-77
2022/04/28 04:16:46;;;;;;;19.03;10.67;;;6.00;99.90;;;;;;5074974;28;20198;-77
2022/04/28 04:19:11;;;;;;;17.23;10.27;;;6.00;99.90;;;;;;5075188;28;20643;-77
2022/04/28 04:21:37;;;;;;;17.80;10.80;;;5.90;99.90;;;;;;5092989;28;20191;-77
2022/04/28 04:24:02;;;;;;;22.00;11.07;;;5.90;99.90;;;;;;5093925;28;20194;-78
2022/04/28 04:26:28;;;;;;;17.50;11.07;;;5.90;99.90;;;;;;5094277;28;20186;-77
2022/04/28 04:28:54;;;;;;;16.00;10.40;;;5.90;99.90;;;;;;5094443;28;20175;-77
2022/04/28 04:34:03;;;;;;;15.87;10.93;;;5.80;99.90;;;;;;5098278;28;20165;-77
2022/04/28 04:36:29;;;;;;;19.80;11.80;;;5.80;99.90;;;;;;5105604;22;20219;-75
2022/04/28 04:38:54;;;;;;;17.13;10.87;;;5.80;99.90;;;;;;5060934;28;20179;-75
2022/04/28 04:41:20;;;;;;;18.67;11.33;;;5.80;99.90;;;;;;5042590;28;20605;-75
2022/04/28 04:43:45;;;;;;;16.33;10.63;;;5.80;99.90;;;;;;5060728;28;20238;-75
2022/04/28 04:46:11;;;;;;;17.73;10.87;;;5.80;99.90;;;;;;5059993;28;20642;-75
2022/04/28 04:48:36;;;;;;;19.43;10.90;;;5.90;99.90;;;;;;5060420;28;20246;-75
2022/04/28 04:51:02;;;;;;;17.97;11.97;;;5.90;99.90;;;;;;5059872;28;20511;-75
2022/04/28 04:53:28;;;;;;;14.83;11.40;;;5.90;99.90;;;;;;5061059;28;20176;-76
2022/04/28 04:55:54;;;;;;;13.93;11.13;;;5.90;99.90;;;;;;5063173;28;20182;-77
2022/04/28 04:58:19;;;;;;;16.23;11.70;;;5.90;99.90;;;;;;5062567;28;20175;-76
2022/04/28 05:00:46;;;;;;;19.97;11.30;;;5.90;99.90;;;;;;5061495;28;20255;-76
2022/04/28 05:03:12;;;;;;;14.37;10.80;;;5.90;99.90;;;;;;5058862;28;20197;-79
2022/04/28 05:05:38;;;;;;;20.53;11.93;;;6.00;99.90;;;;;;5041808;28;20325;-77
2022/04/28 05:08:04;;;;;;;15.73;10.87;;;6.00;99.90;;;;;;5059654;28;20227;-76
2022/04/28 05:10:30;;;;;;;16.83;11.40;;;6.00;99.90;;;;;;5059212;28;20190;-78
2022/04/28 05:12:56;;;;;;;18.17;11.13;;;6.00;99.90;;;;;;5058290;28;20176;-77
2022/04/28 05:15:22;;;;;;;15.97;11.43;;;6.00;99.90;;;;;;5059875;28;20265;-76
2022/04/28 05:17:47;;;;;;;18.93;12.00;;;6.00;99.90;;;;;;5060928;28;20200;-76
2022/04/28 05:20:13;;;;;;;18.03;11.30;;;6.10;99.90;;;;;;5060810;28;20179;-76
2022/04/28 05:22:39;;;;;;;18.07;12.50;;;6.10;99.90;;;;;;5060820;28;20195;-78
2022/04/28 05:25:05;;;;;;;17.17;12.57;;;6.20;99.90;;;;;;5059150;28;20172;-76
2022/04/28 05:27:31;;;;;;;20.43;11.73;;;6.20;99.90;;;;;;5059963;28;20625;-75
2022/04/28 05:29:56;;;;;;;16.67;12.60;;;6.30;99.90;;;;;;5060029;28;20171;-76
2022/04/28 05:32:22;;;;;;;16.43;12.03;;;6.40;99.90;;;;;;5059857;28;20244;-77
2022/04/28 05:34:47;;;;;;;21.77;13.03;;;6.40;99.90;;;;;;5059670;28;20193;-76
2022/04/28 05:37:14;;;;;;;18.50;12.80;;;6.40;99.90;;;;;;5057626;28;20210;-77
2022/04/28 05:39:42;;;;;;;16.30;12.33;;;6.50;99.90;;;;;;5059374;28;20221;-75
2022/04/28 05:42:08;;;;;;;19.53;12.63;;;6.50;99.90;;;;;;5059363;28;20176;-76
2022/04/28 05:47:22;;;;;;;23.93;12.47;;;6.60;99.90;;;;;;5059324;28;20217;-75
2022/04/28 05:49:48;;;;;;;19.00;12.77;;;6.70;99.90;;;;;;5057703;28;20176;-76
2022/04/28 05:52:13;;;;;;;22.17;12.70;;;6.80;99.90;;;;;;5058104;28;20179;-76
2022/04/28 05:54:40;;;;;;;20.60;12.33;;;6.80;99.90;;;;;;5059222;28;20199;-77
2022/04/28 05:57:06;;;;;;;22.20;12.47;;;6.80;99.90;;;;;;5058000;28;20187;-77
2022/04/28 05:59:31;;;;;;;23.60;12.83;;;6.90;99.90;;;;;;5059120;28;20229;-77
2022/04/28 06:01:58;;;;;;;21.80;13.27;;;6.90;99.90;;;;;;5058791;28;20174;-76
2022/04/28 06:04:23;;;;;;;16.30;12.73;;;7.00;99.90;;;;;;5058902;28;20204;-76
2022/04/28 06:06:49;;;;;;;20.50;12.90;;;7.10;99.90;;;;;;5059950;28;20193;-76
2022/04/28 06:09:15;;;;;;;24.20;13.80;;;7.10;99.90;;;;;;5059229;28;20199;-77
2022/04/28 06:11:41;;;;;;;18.90;13.07;;;7.10;99.90;;;;;;5057990;28;20185;-76
2022/04/28 06:14:06;;;;;;;20.77;12.40;;;7.20;99.90;;;;;;5058847;28;20186;-75
2022/04/28 06:16:32;;;;;;;23.70;12.50;;;7.40;99.90;;;;;;5057211;28;20195;-76
2022/04/28 06:18:57;;;;;;;18.77;13.30;;;7.40;99.90;;;;;;5058478;28;20176;-75
2022/04/28 06:21:23;;;;;;;22.70;13.33;;;7.40;99.90;;;;;;5058027;28;20172;-76
2022/04/28 06:23:48;;;;;;;20.40;12.70;;;7.50;99.90;;;;;;5058574;28;20229;-76
2022/04/28 06:26:14;;;;;;;18.73;12.63;;;7.60;99.90;;;;;;5057543;28;20211;-75
2022/04/28 06:28:40;;;;;;;19.57;12.13;;;7.70;1.00;;;;;;5058559;28;20297;-76
2022/04/28 06:31:06;;;;;;;22.03;12.87;;;7.70;1.00;;;;;;5058265;28;20166;-76
2022/04/28 06:33:32;;;;;;;19.77;12.27;;;7.80;15.60;;;;;;5058150;28;20168;-76
2022/04/28 06:35:58;;;;;;;20.70;13.00;;;7.90;1.00;;;;;;5058281;28;20178;-76
2022/04/28 06:38:24;;;;;;;18.83;12.57;;;7.90;4.30;;;;;;5058098;28;20194;-76
2022/04/28 06:40:50;;;;;;;20.03;13.53;;;8.00;1.00;;;;;;5056605;28;20206;-75
2022/04/28 06:43:17;;;;;;;20.60;13.17;;;8.00;1.00;;;;;;5056753;28;20203;-73
2022/04/28 06:46:11;;;;;;;22.10;12.67;;;8.10;1.00;;;;;;5057876;28;20167;-75
2022/04/28 06:48:28;;;;;;;21.37;13.10;;;8.10;1.00;;;;;;5057432;28;20190;-76
2022/04/28 06:50:53;;;;;;;20.03;12.13;;;8.30;1.00;;;;;;5056115;28;20174;-76
2022/04/28 06:53:19;;;;;;;18.20;12.67;;;8.30;1.00;;;;;;5056877;28;20164;-76
2022/04/28 06:55:45;;;;;;;20.43;12.73;;;8.40;65.00;;;;;;5055253;28;20235;-75
2022/04/28 06:58:10;;;;;;;23.57;12.33;;;8.40;99.90;;;;;;5055829;28;20337;-76
2022/04/28 07:00:36;;;;;;;18.33;11.67;;;8.50;99.90;;;;;;5056521;28;20187;-76
2022/04/28 07:03:01;;;;;;;21.03;12.20;;;8.60;1.00;;;;;;5056975;28;20196;-76
2022/04/28 07:05:27;;;;;;;18.20;12.47;;;8.70;99.90;;;;;;5057066;28;20179;-76
2022/04/28 07:07:52;;;;;;;21.40;12.37;;;8.80;1.00;;;;;;5057128;28;20194;-76
2022/04/28 07:10:18;;;;;;;17.70;12.00;;;8.90;1.00;;;;;;5057204;28;20211;-76
2022/04/28 07:12:43;;;;;;;23.83;11.47;;;8.90;1.00;;;;;;5057121;28;20183;-75
2022/04/28 07:15:09;;;;;;;15.43;12.03;;;8.90;1.00;;;;;;5057309;28;20229;-76
2022/04/28 07:17:35;;;;;;;19.90;12.00;;;9.00;99.90;;;;;;5057338;28;20566;-76
2022/04/28 07:20:00;;;;;;;21.40;11.80;;;9.10;99.90;;;;;;5056582;28;20179;-76
2022/04/28 07:22:26;;;;;;;20.20;12.23;;;9.20;1.00;;;;;;5058004;28;20180;-73
2022/04/28 07:24:51;;;;;;;19.57;11.67;;;9.20;99.90;;;;;;5057747;28;20171;-73
2022/04/28 07:27:17;;;;;;;19.40;12.17;;;9.30;99.90;;;;;;5056436;28;20270;-73
2022/04/28 07:29:42;;;;;;;17.37;11.10;;;9.40;1.00;;;;;;5057727;28;20180;-73
2022/04/28 07:32:08;;;;;;;18.83;11.97;;;9.40;1.00;;;;;;5056738;28;20552;-75
2022/04/28 07:34:34;;;;;;;17.67;12.20;;;9.50;1.00;;;;;;5056327;28;20550;-74
2022/04/28 07:36:59;;;;;;;18.63;12.00;;;9.60;99.90;;;;;;5057556;28;20661;-76
2022/04/28 07:39:25;;;;;;;18.23;11.93;;;9.70;1.00;;;;;;5057627;28;20183;-76
2022/04/28 07:41:50;;;;;;;14.70;10.93;;;9.70;99.90;;;;;;5056513;28;20305;-75
2022/04/28 07:44:16;;;;;;;17.23;11.17;;;9.80;1.00;;;;;;5056674;28;20577;-76
2022/04/28 07:46:41;;;;;;;21.33;11.83;;;10.00;99.90;;;;;;5056481;28;20195;-76
2022/04/28 07:49:07;;;;;;;22.37;11.73;;;10.00;1.00;;;;;;5056484;28;20182;-77
2022/04/28 07:51:32;;;;;;;19.30;11.23;;;10.10;99.90;;;;;;5057734;28;20202;-76
2022/04/28 07:53:58;;;;;;;17.63;11.47;;;10.10;99.90;;;;;;5056913;28;20243;-74
2022/04/28 07:56:23;;;;;;;21.07;11.63;;;10.20;1.00;;;;;;5055269;28;20225;-73
2022/04/28 07:58:49;;;;;;;15.37;11.43;;;10.30;1.00;;;;;;5056411;28;20179;-74
2022/04/28 08:01:15;;;;;;;17.53;10.60;;;10.30;1.00;;;;;;5055841;28;20183;-74
2022/04/28 08:03:41;;;;;;;19.27;11.17;;;10.40;1.00;;;;;;5056511;28;20203;-73
2022/04/28 08:06:10;;;;;;;20.07;11.50;;;10.50;1.00;;;;;;5057218;28;20171;-73
2022/04/28 08:08:36;;;;;;;18.73;11.90;;;10.60;99.90;;;;;;5059445;28;20171;-74
2022/04/28 08:11:03;;;;;;;18.13;11.40;;;10.60;1.00;;;;;;5060273;28;20680;-73
2022/04/28 08:13:29;;;;;;;16.50;11.83;;;10.60;99.90;;;;;;5059846;28;20508;-74
2022/04/28 08:15:55;;;;;;;14.53;10.20;;;10.70;99.90;;;;;;5058667;28;20172;-73
2022/04/28 08:18:21;;;;;;;18.07;12.00;;;10.70;99.90;;;;;;5058841;28;20267;-73
2022/04/28 08:20:46;;;;;;;20.67;11.13;;;10.80;1.00;;;;;;5059894;28;20172;-73
2022/04/28 08:23:12;;;;;;;18.07;10.93;;;11.00;1.00;;;;;;5059859;28;20543;-73
2022/04/28 08:25:38;;;;;;;17.13;11.37;;;11.10;1.00;;;;;;5060778;28;20174;-74
2022/04/28 08:28:03;;;;;;;18.80;10.83;;;11.20;99.90;;;;;;5058810;28;20187;-74
2022/04/28 08:30:30;;;;;;;20.10;12.00;;;11.20;1.00;;;;;;5059976;28;20255;-73
2022/04/28 08:32:55;;;;;;;16.87;10.83;;;11.40;1.00;;;;;;5059857;28;20168;-73
2022/04/28 08:35:21;;;;;;;17.60;10.67;;;11.50;1.00;;;;;;5059442;28;20233;-73
2022/04/28 08:37:47;;;;;;;18.77;11.90;;;11.60;1.00;;;;;;5058590;28;20704;-73
2022/04/28 08:40:12;;;;;;;16.77;10.80;;;11.70;99.90;;;;;;5058490;28;20179;-73
2022/04/28 08:42:41;;;;;;;22.67;10.93;;;11.80;99.90;;;;;;5059143;28;20195;-73
2022/04/28 08:45:07;;;;;;;19.80;11.07;;;11.90;99.90;;;;;;5059722;28;20247;-74
2022/04/28 08:47:33;;;;;;;14.63;10.23;;;12.10;1.00;;;;;;5059944;28;20614;-73
2022/04/28 08:49:58;;;;;;;15.73;10.67;;;12.10;44.00;;;;;;5059620;28;20164;-73
2022/04/28 08:52:25;;;;;;;17.57;11.03;;;12.20;16.90;;;;;;5058652;28;20262;-73
2022/04/28 08:54:54;;;;;;;17.00;10.43;;;12.30;1.00;;;;;;5059432;28;20171;-73
2022/04/28 08:57:20;;;;;;;17.87;10.43;;;12.40;1.00;;;;;;5058911;28;20188;-73
2022/04/28 08:59:48;;;;;;;15.07;10.67;;;12.40;1.00;;;;;;5057437;28;20249;-72
2022/04/28 09:02:14;;;;;;;20.67;9.70;;;12.50;1.00;;;;;;5059178;28;20166;-73
2022/04/28 09:04:40;;;;;;;17.10;9.90;;;12.40;99.90;;;;;;5057769;28;20576;-73
2022/04/28 09:07:07;;;;;;;15.83;9.77;;;12.50;1.00;;;;;;5059198;28;20222;-74
2022/04/28 09:09:33;;;;;;;19.40;10.00;;;12.60;99.90;;;;;;5057519;28;20175;-73
2022/04/28 09:12:00;;;;;;;14.37;9.50;;;12.70;99.90;;;;;;5058897;28;20175;-73
2022/04/28 09:14:26;;;;;;;14.60;9.57;;;12.70;99.90;;;;;;5059029;28;20168;-74
2022/04/28 09:16:59;;;;;;;15.27;10.03;;;12.80;99.90;;;;;;5058245;28;20557;-73
2022/04/28 09:19:30;;;;;;;18.77;9.50;;;12.80;99.90;;;;;;5058600;28;20148;-73
2022/04/28 09:22:08;;;;;;;13.53;9.03;;;12.80;99.90;;;;;;5059301;28;20152;-73
2022/04/28 09:24:34;;;;;;;18.30;9.57;;;12.90;99.90;;;;;;5058853;28;20183;-74
2022/04/28 09:27:00;;;;;;;19.20;9.50;;;13.00;46.30;;;;;;5057724;28;20278;-74
2022/04/28 09:29:33;;;;;;;22.40;10.53;;;13.00;99.90;;;;;;5058284;28;20164;-73
2022/04/28 09:31:59;;;;;;;16.47;9.90;;;13.10;99.90;;;;;;5057723;28;20164;-73
2022/04/28 09:34:25;;;;;;;20.20;9.47;;;13.10;99.90;;;;;;5056727;28;20679;-72
2022/04/28 09:36:51;;;;;;;15.93;9.20;;;13.10;9.00;;;;;;5057045;28;20708;-73
2022/04/28 09:44:49;;;;;;;13.17;8.87;;;13.30;99.90;;;;;;5057086;28;20592;-73
2022/04/28 09:47:16;;;;;;;12.97;9.03;;;13.40;99.90;;;;;;5058006;28;20565;-74
2022/04/28 09:49:41;;;;;;;16.10;9.20;;;13.50;99.90;;;;;;5058497;28;20215;-73
2022/04/28 09:52:09;;;;;;;15.33;8.93;;;13.50;99.90;;;;;;5057540;28;20582;-74
2022/04/28 09:54:36;;;;;;;15.07;9.33;;;13.50;99.90;;;;;;5056724;28;20253;-73
2022/04/28 09:57:03;;;;;;;11.97;9.17;;;13.60;99.90;;;;;;5059592;28;20274;-73
2022/04/28 09:59:29;;;;;;;12.33;8.70;;;13.60;99.90;;;;;;5058510;28;20537;-74
2022/04/28 10:01:55;;;;;;;15.60;9.77;;;13.60;1.00;;;;;;5055699;28;20179;-73
2022/04/28 10:04:20;;;;;;;13.87;8.93;;;13.70;1.00;;;;;;5057479;28;20205;-73
2022/04/28 10:06:47;;;;;;;14.47;9.07;;;13.80;68.10;;;;;;5055841;28;20225;-73
2022/04/28 10:09:13;;;;;;;14.53;9.07;;;13.90;1.00;;;;;;5057717;28;20172;-73
2022/04/28 10:11:40;;;;;;;15.23;9.90;;;14.10;1.00;;;;;;5055804;28;20175;-73
2022/04/28 10:14:09;;;;;;;14.63;9.63;;;14.00;55.40;;;;;;5055958;28;20186;-73
2022/04/28 10:16:35;;;;;;;13.93;9.67;;;14.00;1.00;;;;;;5058110;28;20184;-74
2022/04/28 10:19:24;;;;;;;9.70;8.70;;;14.00;99.90;;;;;;5056829;28;20180;-74
2022/04/28 10:21:58;;;;;;;13.87;10.50;;;14.10;99.90;;;;;;5059607;28;20164;-73
2022/04/28 10:33:02;;;;;;;12.47;9.17;;;14.30;36.60;;;;;;5056704;28;20167;-74
2022/04/28 10:35:38;;;;;;;14.97;9.20;;;14.40;33.10;;;;;;5057834;28;20230;-74
2022/04/28 10:38:31;;;;;;;17.97;10.33;;;14.40;99.90;;;;;;5078951;22;20223;-77
2022/04/28 10:41:00;;;;;;;14.97;10.13;;;14.50;94.90;;;;;;5053020;28;20167;-76
2022/04/28 10:43:41;;;;;;;15.40;10.13;;;14.60;87.00;;;;;;5054018;28;20572;-77
2022/04/28 10:46:06;;;;;;;14.27;10.00;;;14.60;1.00;;;;;;5052727;28;20164;-76
2022/04/28 10:48:43;;;;;;;17.50;10.43;;;14.60;1.00;;;;;;5052658;28;20196;-76
2022/04/28 10:51:22;;;;;;;13.30;9.60;;;14.70;1.00;;;;;;5053931;28;20182;-76
2022/04/28 10:54:21;;;;;;;14.17;9.40;;;14.60;1.00;;;;;;5054009;28;20170;-76
2022/04/28 10:56:56;;;;;;;15.00;9.77;;;14.70;1.00;;;;;;5054597;28;20213;-77
2022/04/28 10:59:40;;;;;;;16.43;9.70;;;14.80;1.00;;;;;;5054588;28;20183;-77
2022/04/28 11:02:09;;;;;;;15.17;9.77;;;14.80;1.00;;;;;;5054169;28;20565;-77
2022/04/28 11:04:35;;;;;;;16.03;9.43;;;14.80;1.00;;;;;;5052120;28;20202;-76
2022/04/28 11:07:06;;;;;;;15.40;8.87;;;14.70;99.90;;;;;;5052334;28;20191;-76
2022/04/28 11:09:33;;;;;;;13.97;9.17;;;14.90;99.90;;;;;;5053522;28;20245;-77
2022/04/28 11:12:12;;;;;;;13.97;9.03;;;15.00;99.90;;;;;;5052042;28;20167;-76
2022/04/28 11:15:04;;;;;;;16.90;9.43;;;15.00;99.90;;;;;;5053390;28;20164;-76
2022/04/28 11:17:32;;;;;;;15.67;9.37;;;14.90;99.90;;;;;;5051161;28;20199;-76
2022/04/28 11:20:04;;;;;;;16.17;9.17;;;15.00;99.90;;;;;;5051962;28;20179;-76
2022/04/28 11:22:30;;;;;;;13.23;8.53;;;15.00;99.90;;;;;;5053288;28;20179;-76
2022/04/28 11:24:59;;;;;;;11.97;8.07;;;15.10;1.00;;;;;;5053293;28;20518;-76
2022/04/28 11:27:27;;;;;;;15.70;8.73;;;15.20;1.00;;;;;;5052028;28;20182;-77
2022/04/28 11:29:58;;;;;;;14.60;8.97;;;15.40;1.00;;;;;;5052145;28;20649;-76
2022/04/28 11:32:25;;;;;;;15.27;7.93;;;15.40;1.00;;;;;;5053663;28;20246;-77
2022/04/28 11:34:56;;;;;;;15.43;9.33;;;15.50;1.00;;;;;;5054038;28;20175;-76
2022/04/28 11:37:24;;;;;;;10.87;8.07;;;15.40;99.90;;;;;;5051753;28;20171;-76
2022/04/28 11:39:51;;;;;;;15.30;8.43;;;15.50;99.90;;;;;;5053381;28;20166;-76
2022/04/28 11:42:18;;;;;;;13.83;8.50;;;15.60;99.90;;;;;;5053253;28;20205;-76
2022/04/28 11:44:56;;;;;;;13.20;8.20;;;15.60;99.90;;;;;;5053160;28;20723;-76
2022/04/28 11:47:24;;;;;;;14.00;7.97;;;15.70;99.90;;;;;;5053263;28;20174;-76
2022/04/28 11:50:03;;;;;;;15.67;10.10;;;15.70;99.90;;;;;;5053272;28;20171;-76
2022/04/28 11:52:34;;;;;;;19.83;9.47;;;15.70;99.90;;;;;;5054003;28;20235;-76
2022/04/28 11:55:08;;;;;;;17.80;10.43;;;15.70;99.90;;;;;;5051816;28;20175;-76
2022/04/28 11:57:39;;;;;;;17.00;9.67;;;15.60;99.90;;;;;;5051704;28;20168;-76
2022/04/28 12:00:06;;;;;;;13.33;8.73;;;15.50;99.90;;;;;;5051631;28;20271;-76
2022/04/28 12:02:35;;;;;;;16.13;10.10;;;15.60;99.90;;;;;;5051932;28;20179;-75
2022/04/28 12:05:15;;;;;;;17.50;8.57;;;15.60;99.90;;;;;;5052985;28;20168;-77
2022/04/28 12:07:43;;;;;;;13.20;8.67;;;15.80;99.90;;;;;;5053002;28;20195;-76
2022/04/28 12:15:55;;;;;;;14.53;9.10;;;15.90;99.90;;;;;;5053518;28;20533;-77
2022/04/28 12:21:22;;;;;;;15.87;9.27;;;16.00;21.70;;;;;;5053942;28;20163;-77
2022/04/28 12:23:51;;;;;;;13.00;8.67;;;16.00;99.90;;;;;;5053086;28;20188;-77
2022/04/28 12:26:20;;;;;;;11.83;8.33;;;16.00;99.90;;;;;;5054016;28;20175;-77
2022/04/28 12:28:46;;;;;;;21.63;9.07;;;16.00;99.90;;;;;;5051331;28;20195;-77
2022/04/28 12:31:13;;;;;;;12.57;7.83;;;16.00;92.30;;;;;;5053106;28;20206;-77
2022/04/28 12:33:40;;;;;;;14.10;8.30;;;16.00;41.80;;;;;;5052504;28;20219;-77
2022/04/28 12:36:11;;;;;;;13.67;7.70;;;16.00;99.90;;;;;;5052643;28;20172;-77
2022/04/28 12:38:46;;;;;;;18.07;8.33;;;16.10;99.90;;;;;;5050990;28;20696;-77
2022/04/28 12:41:32;;;;;;;12.13;7.80;;;16.20;99.90;;;;;;5051175;28;20691;-77
2022/04/28 12:44:00;;;;;;;16.53;8.93;;;16.40;99.90;;;;;;5052929;28;20184;-76
2022/04/28 12:46:29;;;;;;;14.57;8.30;;;16.30;1.00;;;;;;5052382;28;20164;-76
2022/04/28 12:48:55;;;;;;;20.60;8.07;;;16.40;1.00;;;;;;5050960;28;20245;-76
2022/04/28 12:51:23;;;;;;;13.60;7.77;;;16.40;1.00;;;;;;5052325;28;20225;-77
2022/04/28 12:53:51;;;;;;;11.77;7.57;;;16.60;71.10;;;;;;5054552;28;20175;-76
2022/04/28 12:56:27;;;;;;;12.70;7.83;;;16.70;20.50;;;;;;5054911;28;20650;-77
2022/04/28 12:58:58;;;;;;;17.47;7.63;;;16.70;1.00;;;;;;5054662;28;20203;-77
2022/04/28 13:01:25;;;;;;;10.53;7.20;;;16.70;1.00;;;;;;5056428;28;20575;-77
2022/04/28 13:04:02;;;;;;;12.63;7.70;;;16.70;1.00;;;;;;5054485;28;20204;-76
2022/04/28 13:06:30;;;;;;;13.83;8.10;;;16.70;1.00;;;;;;5055976;28;20170;-77
2022/04/28 13:08:57;;;;;;;13.23;8.60;;;16.80;1.00;;;;;;5055363;28;20195;-77
2022/04/28 13:11:31;;;;;;;12.73;7.60;;;16.90;1.00;;;;;;5055333;28;20255;-77
2022/04/28 13:13:58;;;;;;;12.87;7.03;;;16.90;1.00;;;;;;5054663;28;20657;-77
2022/04/28 13:16:24;;;;;;;14.97;7.83;;;16.90;1.00;;;;;;5055990;28;20176;-77
2022/04/28 13:18:51;;;;;;;12.33;7.40;;;16.90;1.00;;;;;;5054022;28;20257;-77